Time;durP1;ratioP1;P1;durP2;ratioP2;P2;SDS_P1;SDS_P2;PMS_P1;PMS_P2;Temp;Humidity;BMP_temperature;BMP_pressure;BME280_temperature;BME280_humidity;BME280_pressure;Samples;Min_cycle;Max_cycle;Signal;HPM_P1;HPM_P2
2023/12/25 00:02:06;;;;;;;1.63;0.70;;;13.40;99.90;;;;;;5041190;28;20209;-64
2023/12/25 00:04:33;;;;;;;2.03;0.87;;;13.50;99.90;;;;;;5044099;28;20218;-63
2023/12/25 00:07:00;;;;;;;2.70;0.80;;;13.50;99.90;;;;;;5044750;28;20245;-62
2023/12/25 00:09:27;;;;;;;3.37;1.13;;;13.30;99.90;;;;;;5043312;28;20205;-62
2023/12/25 00:11:55;;;;;;;1.40;0.77;;;13.30;99.90;;;;;;5041006;28;20229;-62
2023/12/25 00:14:22;;;;;;;1.43;0.87;;;13.40;99.90;;;;;;5042057;28;20680;-64
2023/12/25 00:16:48;;;;;;;1.27;0.70;;;13.30;99.90;;;;;;5044460;28;20312;-62
2023/12/25 00:19:15;;;;;;;2.13;0.87;;;13.40;99.90;;;;;;5044446;28;20260;-64
2023/12/25 00:21:42;;;;;;;6.20;3.47;;;13.40;99.90;;;;;;5040898;28;20198;-63
2023/12/25 00:24:09;;;;;;;4.47;2.80;;;13.40;99.90;;;;;;5040992;28;20664;-63
2023/12/25 00:26:40;;;;;;;2.17;0.80;;;13.40;99.90;;;;;;5044110;28;20749;-62
2023/12/25 00:29:09;;;;;;;1.57;0.70;;;13.40;99.90;;;;;;5044461;28;20283;-62
2023/12/25 00:31:35;;;;;;;2.67;0.70;;;13.40;99.90;;;;;;5041359;28;20248;-63
2023/12/25 00:34:02;;;;;;;1.27;0.83;;;13.40;99.90;;;;;;5041024;28;20202;-63
2023/12/25 00:36:30;;;;;;;1.77;0.77;;;13.40;99.90;;;;;;5042486;28;20218;-64
2023/12/25 00:38:57;;;;;;;3.53;0.97;;;13.40;99.90;;;;;;5044154;28;20604;-63
2023/12/25 00:41:30;;;;;;;1.57;0.90;;;13.40;99.90;;;;;;5042577;28;20209;-64
2023/12/25 00:43:57;;;;;;;1.97;0.90;;;13.30;99.90;;;;;;5040451;28;20742;-63
2023/12/25 00:46:25;;;;;;;1.30;0.57;;;13.30;99.90;;;;;;5041431;28;20218;-64
2023/12/25 00:48:51;;;;;;;2.87;1.13;;;13.30;99.90;;;;;;5043952;28;20205;-64
2023/12/25 00:51:18;;;;;;;1.20;0.60;;;13.20;99.90;;;;;;5043189;28;20214;-63
2023/12/25 00:53:45;;;;;;;2.20;0.70;;;13.30;99.90;;;;;;5040108;28;20604;-63
2023/12/25 00:56:11;;;;;;;1.50;0.77;;;13.30;99.90;;;;;;5040412;28;20234;-63
2023/12/25 00:58:38;;;;;;;2.50;0.60;;;13.30;99.90;;;;;;5042545;28;20255;-63
2023/12/25 01:01:05;;;;;;;2.87;0.70;;;13.30;99.90;;;;;;5043344;28;20201;-62
2023/12/25 01:03:33;;;;;;;2.13;0.57;;;13.30;99.90;;;;;;5041264;28;20232;-64
2023/12/25 01:06:00;;;;;;;1.27;0.57;;;13.40;99.90;;;;;;5040174;28;20203;-64
2023/12/25 01:08:26;;;;;;;0.70;0.50;;;13.30;99.90;;;;;;5041116;28;20210;-63
2023/12/25 01:10:53;;;;;;;1.17;0.60;;;13.30;99.90;;;;;;5043256;28;20240;-62
2023/12/25 01:13:20;;;;;;;1.20;0.70;;;13.40;99.90;;;;;;5042726;28;20248;-62
2023/12/25 01:15:47;;;;;;;1.03;0.57;;;13.30;99.90;;;;;;5039932;28;20230;-63
2023/12/25 01:18:14;;;;;;;1.07;0.67;;;13.30;99.90;;;;;;5039682;28;20201;-64
2023/12/25 01:20:43;;;;;;;4.03;0.83;;;13.30;99.90;;;;;;5042832;28;20288;-63
2023/12/25 01:23:10;;;;;;;2.20;0.70;;;13.20;99.90;;;;;;5043093;28;20240;-65
2023/12/25 01:25:36;;;;;;;3.10;0.63;;;13.30;99.90;;;;;;5040604;28;20701;-63
2023/12/25 01:28:03;;;;;;;1.33;0.83;;;13.30;99.90;;;;;;5040002;28;20233;-62
2023/12/25 01:30:30;;;;;;;1.13;0.67;;;13.20;99.90;;;;;;5041361;28;20218;-63
2023/12/25 01:32:57;;;;;;;1.10;0.70;;;13.10;99.90;;;;;;5043028;28;20205;-63
2023/12/25 01:35:23;;;;;;;0.87;0.60;;;13.10;99.90;;;;;;5041923;28;20304;-62
2023/12/25 01:37:51;;;;;;;1.80;0.67;;;13.10;99.90;;;;;;5039483;28;20230;-63
2023/12/25 01:40:18;;;;;;;1.03;0.70;;;13.10;99.90;;;;;;5039440;28;20943;-62
2023/12/25 01:42:45;;;;;;;1.77;0.90;;;13.10;99.90;;;;;;5042893;28;20208;-61
2023/12/25 01:45:11;;;;;;;0.93;0.40;;;13.10;99.90;;;;;;5042772;28;20267;-62
2023/12/25 01:47:38;;;;;;;2.67;0.80;;;13.10;99.90;;;;;;5039839;28;20255;-62
2023/12/25 01:50:06;;;;;;;0.73;0.50;;;13.10;99.90;;;;;;5039288;28;20202;-62
2023/12/25 01:52:33;;;;;;;0.53;0.50;;;13.10;99.90;;;;;;5041313;28;20298;-62
2023/12/25 01:55:02;;;;;;;1.13;0.67;;;13.00;99.90;;;;;;5042758;28;20207;-62
2023/12/25 01:57:32;;;;;;;1.17;0.70;;;13.00;99.90;;;;;;5041173;28;20229;-62
2023/12/25 01:59:58;;;;;;;1.47;0.70;;;13.00;99.90;;;;;;5039356;28;20217;-62
2023/12/25 02:02:25;;;;;;;2.30;0.70;;;13.10;99.90;;;;;;5040070;28;20203;-63
2023/12/25 02:04:52;;;;;;;1.47;0.80;;;13.00;99.90;;;;;;5042693;28;20213;-62
2023/12/25 02:07:19;;;;;;;3.53;2.07;;;12.90;99.90;;;;;;5042494;28;20749;-63
2023/12/25 02:09:49;;;;;;;1.40;0.70;;;12.80;99.90;;;;;;5040694;28;20206;-62
2023/12/25 02:12:17;;;;;;;1.00;0.60;;;12.60;99.90;;;;;;5043420;28;20781;-62
2023/12/25 02:14:44;;;;;;;2.63;0.80;;;12.50;99.90;;;;;;5043782;28;20202;-62
2023/12/25 02:17:12;;;;;;;1.43;0.70;;;12.40;99.90;;;;;;5043409;28;20237;-61
2023/12/25 02:19:41;;;;;;;1.97;0.70;;;12.40;99.90;;;;;;5046288;28;20254;-62
2023/12/25 02:22:08;;;;;;;1.77;0.90;;;12.30;99.90;;;;;;5046900;28;20202;-63
2023/12/25 02:24:37;;;;;;;1.00;0.60;;;12.20;99.90;;;;;;5044461;28;20702;-63
2023/12/25 02:27:06;;;;;;;0.90;0.60;;;12.20;99.90;;;;;;5043251;28;20222;-63
2023/12/25 02:29:34;;;;;;;1.53;0.80;;;12.20;99.90;;;;;;5045158;28;20206;-62
2023/12/25 02:32:00;;;;;;;2.87;0.80;;;12.30;99.90;;;;;;5046478;28;20307;-62
2023/12/25 02:34:27;;;;;;;2.80;0.50;;;12.20;99.90;;;;;;5045381;28;20205;-61
2023/12/25 02:36:54;;;;;;;0.97;0.63;;;12.10;99.90;;;;;;5043053;28;20271;-63
2023/12/25 02:39:21;;;;;;;1.03;0.70;;;12.20;99.90;;;;;;5043050;28;20202;-62
2023/12/25 02:41:47;;;;;;;5.07;0.80;;;12.10;99.90;;;;;;5046439;28;20213;-62
2023/12/25 02:44:16;;;;;;;0.83;0.57;;;12.00;99.90;;;;;;5046241;28;20198;-63
2023/12/25 02:46:42;;;;;;;1.27;0.70;;;12.00;99.90;;;;;;5043069;28;20226;-63
2023/12/25 02:49:09;;;;;;;1.27;0.70;;;12.00;99.90;;;;;;5043082;28;20198;-62
2023/12/25 02:51:36;;;;;;;1.13;0.60;;;12.00;99.90;;;;;;5044760;28;20229;-63
2023/12/25 02:54:02;;;;;;;1.00;0.60;;;11.90;99.90;;;;;;5046243;28;20198;-63
2023/12/25 02:56:29;;;;;;;6.80;0.93;;;11.90;99.90;;;;;;5044675;28;20601;-63
2023/12/25 02:58:56;;;;;;;1.43;0.90;;;11.90;99.90;;;;;;5042473;28;20253;-64
2023/12/25 03:01:24;;;;;;;1.10;0.83;;;11.90;99.90;;;;;;5042944;28;20202;-63
2023/12/25 03:03:51;;;;;;;1.53;0.80;;;11.90;99.90;;;;;;5046022;28;20551;-63
2023/12/25 03:06:17;;;;;;;1.23;0.73;;;11.90;99.90;;;;;;5046321;28;20222;-63
2023/12/25 03:08:44;;;;;;;2.07;0.73;;;11.80;99.90;;;;;;5042431;28;20241;-64
2023/12/25 03:11:11;;;;;;;0.87;0.60;;;11.80;99.90;;;;;;5042079;28;20218;-63
2023/12/25 03:13:37;;;;;;;1.53;0.73;;;11.80;99.90;;;;;;5044393;28;20217;-63
2023/12/25 03:16:05;;;;;;;1.77;0.50;;;11.80;99.90;;;;;;5045593;28;20710;-62
2023/12/25 03:18:33;;;;;;;1.40;0.50;;;11.70;99.90;;;;;;5044402;28;20293;-63
2023/12/25 03:21:00;;;;;;;1.20;0.70;;;11.70;99.90;;;;;;5041563;28;20198;-63
2023/12/25 03:23:27;;;;;;;1.93;0.70;;;11.70;99.90;;;;;;5042579;28;20198;-63
2023/12/25 03:25:54;;;;;;;4.67;0.90;;;11.70;99.90;;;;;;5045316;28;20805;-63
2023/12/25 03:28:21;;;;;;;2.47;0.67;;;11.70;99.90;;;;;;5045568;28;20632;-63
2023/12/25 03:30:47;;;;;;;1.33;0.50;;;11.70;99.90;;;;;;5033995;28;20222;-63
2023/12/25 03:33:14;;;;;;;2.33;0.57;;;11.70;99.90;;;;;;5041917;28;20205;-63
2023/12/25 03:35:42;;;;;;;0.90;0.70;;;11.70;99.90;;;;;;5044511;28;20209;-63
2023/12/25 03:38:09;;;;;;;1.17;0.50;;;11.70;99.90;;;;;;5045161;28;20226;-63
2023/12/25 03:40:35;;;;;;;1.50;0.57;;;11.80;99.90;;;;;;5043240;28;20213;-63
2023/12/25 03:43:02;;;;;;;1.07;0.60;;;11.90;99.90;;;;;;5041807;28;20203;-63
2023/12/25 03:45:29;;;;;;;1.20;0.50;;;12.00;99.90;;;;;;5042690;28;20203;-64
2023/12/25 03:47:56;;;;;;;0.70;0.53;;;12.10;99.90;;;;;;5045150;28;20304;-63
2023/12/25 03:50:22;;;;;;;1.37;0.53;;;12.10;99.90;;;;;;5044526;28;20210;-63
2023/12/25 03:52:51;;;;;;;0.77;0.60;;;12.10;99.90;;;;;;5041224;28;20676;-63
2023/12/25 03:55:17;;;;;;;0.83;0.60;;;12.00;99.90;;;;;;5041312;28;20214;-63
2023/12/25 03:57:44;;;;;;;1.90;0.60;;;11.90;99.90;;;;;;5044397;28;20268;-63
2023/12/25 04:00:12;;;;;;;1.97;0.53;;;11.90;99.90;;;;;;5044829;28;20202;-63
2023/12/25 04:02:39;;;;;;;0.77;0.57;;;11.80;99.90;;;;;;5042528;28;20212;-63
2023/12/25 04:05:07;;;;;;;0.77;0.57;;;11.80;99.90;;;;;;5041395;28;20206;-63
2023/12/25 04:07:33;;;;;;;1.77;0.80;;;11.80;99.90;;;;;;5042509;28;20607;-63
2023/12/25 04:10:02;;;;;;;1.23;0.40;;;11.80;99.90;;;;;;5044522;28;20663;-63
2023/12/25 04:12:29;;;;;;;0.70;0.57;;;11.90;99.90;;;;;;5043327;28;20222;-63
2023/12/25 04:14:56;;;;;;;1.33;0.70;;;12.00;99.90;;;;;;5041305;28;20234;-64
2023/12/25 04:17:22;;;;;;;1.20;0.63;;;12.10;99.90;;;;;;5041088;28;20230;-63
2023/12/25 04:19:49;;;;;;;0.80;0.60;;;12.20;99.90;;;;;;5044487;28;20206;-65
2023/12/25 04:22:16;;;;;;;1.00;0.70;;;12.20;99.90;;;;;;5044045;28;20198;-66
2023/12/25 04:24:42;;;;;;;1.43;0.53;;;12.20;99.90;;;;;;5041677;28;20271;-65
2023/12/25 04:27:10;;;;;;;1.50;0.60;;;12.40;99.90;;;;;;5040602;28;20734;-66
2023/12/25 04:29:37;;;;;;;1.33;0.70;;;12.40;99.90;;;;;;5042820;28;20210;-66
2023/12/25 04:32:04;;;;;;;1.77;0.80;;;12.50;99.90;;;;;;5043948;28;20214;-66
2023/12/25 04:34:31;;;;;;;1.27;0.60;;;12.40;99.90;;;;;;5041673;28;20679;-66
2023/12/25 04:36:58;;;;;;;1.27;0.67;;;12.50;99.90;;;;;;5040598;28;20234;-66
2023/12/25 04:39:24;;;;;;;1.50;0.90;;;12.50;99.90;;;;;;5040716;28;20244;-65
2023/12/25 04:41:51;;;;;;;0.77;0.53;;;12.50;99.90;;;;;;5043937;28;20581;-66
2023/12/25 04:44:19;;;;;;;0.70;0.60;;;12.60;99.90;;;;;;5043982;28;20367;-66
2023/12/25 04:46:46;;;;;;;0.93;0.50;;;12.60;99.90;;;;;;5040529;28;20303;-66
2023/12/25 04:49:12;;;;;;;1.03;0.50;;;12.70;99.90;;;;;;5040408;28;20202;-65
2023/12/25 04:51:39;;;;;;;1.37;0.70;;;12.70;99.90;;;;;;5042052;28;20222;-66
2023/12/25 04:54:06;;;;;;;0.87;0.50;;;12.60;99.90;;;;;;5043566;28;20202;-66
2023/12/25 04:56:33;;;;;;;1.13;0.73;;;12.70;99.90;;;;;;5042413;28;20236;-66
2023/12/25 04:59:00;;;;;;;0.80;0.50;;;12.70;99.90;;;;;;5040307;28;20636;-65
2023/12/25 05:01:28;;;;;;;1.93;0.63;;;12.70;99.90;;;;;;5040202;28;20581;-65
2023/12/25 05:03:54;;;;;;;1.00;0.50;;;12.60;99.90;;;;;;5043309;28;20213;-65
2023/12/25 05:06:21;;;;;;;0.50;0.47;;;12.40;99.90;;;;;;5043480;28;20317;-65
2023/12/25 05:08:48;;;;;;;1.27;0.67;;;12.30;99.90;;;;;;5040180;28;20209;-65
2023/12/25 05:11:14;;;;;;;1.60;0.63;;;12.30;99.90;;;;;;5039815;28;20206;-63
2023/12/25 05:13:41;;;;;;;1.10;1.00;;;12.20;99.90;;;;;;5042396;28;20206;-65
2023/12/25 05:16:08;;;;;;;0.73;0.30;;;12.20;99.90;;;;;;5043269;28;20299;-65
2023/12/25 05:18:36;;;;;;;1.60;0.50;;;12.20;99.90;;;;;;5041712;28;20310;-63
2023/12/25 05:21:02;;;;;;;1.00;0.40;;;12.20;99.90;;;;;;5039993;28;20206;-64
2023/12/25 05:23:29;;;;;;;0.73;0.60;;;12.20;99.90;;;;;;5040551;28;20210;-65
2023/12/25 05:25:56;;;;;;;2.17;0.60;;;12.30;99.90;;;;;;5043167;28;20201;-65
2023/12/25 05:28:22;;;;;;;2.33;0.73;;;12.20;99.90;;;;;;5043227;28;20209;-65
2023/12/25 05:30:49;;;;;;;2.33;0.50;;;12.20;99.90;;;;;;5039390;28;20280;-65
2023/12/25 05:33:16;;;;;;;1.00;0.50;;;12.20;99.90;;;;;;5039454;28;20226;-65
2023/12/25 05:35:44;;;;;;;1.20;0.57;;;12.30;99.90;;;;;;5042161;28;20214;-65
2023/12/25 05:38:10;;;;;;;2.20;0.60;;;12.20;99.90;;;;;;5043098;28;20221;-65
2023/12/25 05:40:37;;;;;;;1.20;0.80;;;12.20;99.90;;;;;;5041020;28;20201;-64
2023/12/25 05:43:04;;;;;;;0.67;0.53;;;12.30;99.90;;;;;;5039548;28;20206;-65
2023/12/25 05:45:31;;;;;;;1.23;0.70;;;12.40;99.90;;;;;;5039732;28;20256;-65
2023/12/25 05:47:58;;;;;;;0.60;0.60;;;12.40;99.90;;;;;;5043053;28;20253;-65
2023/12/25 05:50:25;;;;;;;3.20;0.70;;;12.40;99.90;;;;;;5042895;28;20237;-65
2023/12/25 05:52:53;;;;;;;0.80;0.50;;;12.50;99.90;;;;;;5031297;28;20219;-65
2023/12/25 05:55:20;;;;;;;0.73;0.50;;;12.50;99.90;;;;;;5039463;28;20207;-65
2023/12/25 05:57:47;;;;;;;0.63;0.60;;;12.40;99.90;;;;;;5042050;28;20230;-65
2023/12/25 06:00:15;;;;;;;0.50;0.50;;;12.50;99.90;;;;;;5042549;28;20228;-65
2023/12/25 06:02:41;;;;;;;1.60;0.60;;;12.50;99.90;;;;;;5040606;28;20220;-64
2023/12/25 06:05:09;;;;;;;1.50;0.70;;;12.50;99.90;;;;;;5039684;28;20213;-65
2023/12/25 06:07:35;;;;;;;1.50;0.57;;;12.50;99.90;;;;;;5040364;28;20859;-66
2023/12/25 06:10:04;;;;;;;2.30;0.90;;;12.60;99.90;;;;;;5042571;28;20271;-64
2023/12/25 06:12:30;;;;;;;0.97;0.60;;;12.60;99.90;;;;;;5041530;28;20340;-65
2023/12/25 06:14:57;;;;;;;1.53;0.43;;;12.60;99.90;;;;;;5039476;28;20202;-65
2023/12/25 06:17:24;;;;;;;1.10;0.50;;;12.60;99.90;;;;;;5039041;28;20230;-65
2023/12/25 06:19:51;;;;;;;0.40;0.40;;;12.60;99.90;;;;;;5031178;28;20206;-65
2023/12/25 06:22:18;;;;;;;0.70;0.50;;;12.70;99.90;;;;;;5039002;28;20202;-65
2023/12/25 06:24:44;;;;;;;0.93;0.70;;;12.70;99.90;;;;;;5041356;28;20690;-65
2023/12/25 06:27:12;;;;;;;1.17;0.80;;;12.70;99.90;;;;;;5042321;28;20226;-65
2023/12/25 06:29:39;;;;;;;1.20;0.67;;;12.70;99.90;;;;;;5040841;28;20209;-65
2023/12/25 06:32:06;;;;;;;0.77;0.37;;;12.70;99.90;;;;;;5039022;28;20517;-65
2023/12/25 06:34:33;;;;;;;1.17;0.70;;;12.60;99.90;;;;;;5040068;28;20214;-65
2023/12/25 06:37:00;;;;;;;0.90;0.70;;;12.50;99.90;;;;;;5042385;28;20233;-65
2023/12/25 06:39:26;;;;;;;2.47;0.80;;;12.60;99.90;;;;;;5042259;28;20252;-63
2023/12/25 06:41:53;;;;;;;0.57;0.57;;;12.60;99.90;;;;;;5038648;28;20195;-65
2023/12/25 06:44:21;;;;;;;1.17;0.87;;;12.60;99.90;;;;;;5039050;28;20210;-65
2023/12/25 06:46:48;;;;;;;3.03;0.50;;;12.70;99.90;;;;;;5041699;28;20221;-65
2023/12/25 06:49:14;;;;;;;0.73;0.70;;;12.80;99.90;;;;;;5042334;28;20624;-64
2023/12/25 06:51:41;;;;;;;0.77;0.60;;;12.80;99.90;;;;;;5040054;28;20292;-65
2023/12/25 06:54:08;;;;;;;7.60;4.73;;;12.80;99.90;;;;;;5038736;28;20675;-65
2023/12/25 06:56:34;;;;;;;2.17;1.90;;;12.80;99.90;;;;;;5040282;28;20650;-65
2023/12/25 06:59:01;;;;;;;2.10;1.53;;;12.80;99.90;;;;;;5046179;28;20206;-65
2023/12/25 07:01:30;;;;;;;1.93;0.60;;;12.90;99.90;;;;;;5045584;28;20205;-65
2023/12/25 07:03:57;;;;;;;2.10;0.80;;;12.90;99.90;;;;;;5042471;28;20202;-66
2023/12/25 07:06:23;;;;;;;1.10;0.80;;;12.90;99.90;;;;;;5042500;28;20280;-65
2023/12/25 07:08:52;;;;;;;0.90;0.57;;;12.90;99.90;;;;;;5045192;28;20702;-65
2023/12/25 07:11:18;;;;;;;2.17;0.50;;;12.90;99.90;;;;;;5045707;28;20208;-65
2023/12/25 07:13:45;;;;;;;0.50;0.30;;;12.90;99.90;;;;;;5043105;28;20229;-65
2023/12/25 07:16:21;;;;;;;1.07;0.63;;;13.00;99.90;;;;;;5042084;28;20707;-65
2023/12/25 07:18:50;;;;;;;1.20;0.97;;;13.00;99.90;;;;;;5044667;28;20206;-65
2023/12/25 07:21:16;;;;;;;1.40;0.80;;;13.00;99.90;;;;;;5045282;28;20205;-65
2023/12/25 07:23:43;;;;;;;0.53;0.50;;;12.90;99.90;;;;;;5043229;28;20251;-65
2023/12/25 07:26:10;;;;;;;0.60;0.50;;;12.90;99.90;;;;;;5042126;28;20595;-65
2023/12/25 07:28:36;;;;;;;1.23;0.50;;;13.00;99.90;;;;;;5043124;28;20210;-65
2023/12/25 07:31:03;;;;;;;1.73;0.90;;;13.00;99.90;;;;;;5045278;28;20213;-64
2023/12/25 07:33:30;;;;;;;1.00;0.90;;;13.00;99.90;;;;;;5044868;28;20294;-65
2023/12/25 07:35:58;;;;;;;0.87;0.63;;;13.10;99.90;;;;;;5041733;28;20206;-65
2023/12/25 07:38:25;;;;;;;0.77;0.70;;;13.10;99.90;;;;;;5041922;28;20232;-66
2023/12/25 07:40:51;;;;;;;1.23;0.90;;;13.00;99.90;;;;;;5044829;28;20554;-65
2023/12/25 07:43:18;;;;;;;1.33;0.67;;;13.10;99.90;;;;;;5045143;28;20228;-65
2023/12/25 07:45:45;;;;;;;1.50;0.70;;;13.10;99.90;;;;;;5042716;28;20671;-65
2023/12/25 07:48:12;;;;;;;2.07;0.70;;;13.20;99.90;;;;;;5041435;28;20306;-65
2023/12/25 07:50:39;;;;;;;0.50;0.47;;;13.10;99.90;;;;;;5042590;28;20210;-65
2023/12/25 07:53:07;;;;;;;1.10;0.80;;;13.10;99.90;;;;;;5045006;28;20217;-65
2023/12/25 07:55:35;;;;;;;1.00;0.80;;;13.10;99.90;;;;;;5044290;28;20210;-65
2023/12/25 07:58:02;;;;;;;2.00;1.23;;;13.10;99.90;;;;;;5041515;28;20230;-65
2023/12/25 08:00:28;;;;;;;0.77;0.77;;;13.10;99.90;;;;;;5041207;28;20198;-66
2023/12/25 08:02:55;;;;;;;3.27;2.20;;;13.10;99.90;;;;;;5033132;28;20276;-64
2023/12/25 08:05:22;;;;;;;2.63;1.10;;;13.10;99.90;;;;;;5041221;28;20234;-63
2023/12/25 08:07:49;;;;;;;1.93;0.80;;;13.20;99.90;;;;;;5043527;28;20230;-63
2023/12/25 08:10:17;;;;;;;2.30;0.80;;;13.30;99.90;;;;;;5044460;28;20213;-62
2023/12/25 08:12:44;;;;;;;1.20;0.77;;;13.30;99.90;;;;;;5042165;28;20228;-62
2023/12/25 08:15:11;;;;;;;2.00;0.93;;;13.40;99.90;;;;;;5041096;28;20671;-64
2023/12/25 08:17:38;;;;;;;1.43;1.10;;;13.50;99.90;;;;;;5041607;28;20781;-62
2023/12/25 08:20:06;;;;;;;1.40;0.70;;;13.50;99.90;;;;;;5044384;28;20278;-66
2023/12/25 08:22:33;;;;;;;2.10;1.23;;;13.60;99.90;;;;;;5043724;28;20198;-64
2023/12/25 08:25:00;;;;;;;1.00;0.70;;;13.70;99.90;;;;;;5040907;28;20293;-64
2023/12/25 08:27:28;;;;;;;1.90;0.87;;;13.60;99.90;;;;;;5040652;28;20228;-64
2023/12/25 08:29:54;;;;;;;1.87;1.00;;;13.70;99.90;;;;;;5040724;28;20256;-64
2023/12/25 08:32:21;;;;;;;1.40;0.80;;;13.70;99.90;;;;;;5040261;28;20264;-64
2023/12/25 08:34:48;;;;;;;2.30;1.60;;;13.80;99.90;;;;;;5043202;28;20214;-64
2023/12/25 08:37:14;;;;;;;1.20;0.90;;;13.90;99.90;;;;;;5043948;28;20217;-63
2023/12/25 08:39:41;;;;;;;0.80;0.80;;;13.90;99.90;;;;;;5042409;28;20678;-64
2023/12/25 08:42:08;;;;;;;2.53;1.10;;;13.90;99.90;;;;;;5040831;28;20234;-64
2023/12/25 08:44:36;;;;;;;0.90;0.80;;;13.90;99.90;;;;;;5040994;28;20290;-63
2023/12/25 08:47:03;;;;;;;0.70;0.70;;;14.00;99.90;;;;;;5043888;28;20225;-63
2023/12/25 08:49:29;;;;;;;2.33;1.33;;;14.00;99.90;;;;;;5043910;28;20381;-64
2023/12/25 08:51:56;;;;;;;3.40;1.20;;;14.00;99.90;;;;;;5031950;28;20203;-64
2023/12/25 08:54:23;;;;;;;1.90;1.10;;;14.10;99.90;;;;;;5040271;28;20219;-64
2023/12/25 08:56:50;;;;;;;1.70;1.03;;;14.20;99.90;;;;;;5042784;28;20233;-64
2023/12/25 08:59:17;;;;;;;10.53;1.50;;;14.30;99.90;;;;;;5043541;28;20857;-65
2023/12/25 09:01:45;;;;;;;1.97;1.23;;;14.40;99.90;;;;;;5041817;28;20206;-64
2023/12/25 09:04:12;;;;;;;2.50;1.27;;;14.50;99.90;;;;;;5040063;28;20214;-64
2023/12/25 09:06:41;;;;;;;4.00;1.10;;;14.40;99.90;;;;;;5041054;28;20222;-63
2023/12/25 09:09:08;;;;;;;2.10;0.67;;;14.50;99.90;;;;;;5043350;28;20213;-64
2023/12/25 09:11:35;;;;;;;3.10;1.20;;;14.50;99.90;;;;;;5042989;28;20206;-64
2023/12/25 09:14:02;;;;;;;2.23;1.63;;;14.50;99.90;;;;;;5037735;28;20232;-68
2023/12/25 09:16:29;;;;;;;3.10;1.00;;;14.40;99.90;;;;;;5038491;28;20238;-63
2023/12/25 09:18:57;;;;;;;0.97;0.70;;;14.40;99.90;;;;;;5042880;28;20236;-65
2023/12/25 09:21:24;;;;;;;1.53;0.80;;;14.40;99.90;;;;;;5042758;28;20205;-66
2023/12/25 09:23:50;;;;;;;0.80;0.63;;;14.40;99.90;;;;;;5040294;28;20201;-66
2023/12/25 09:26:20;;;;;;;2.17;1.53;;;14.40;99.90;;;;;;5039400;28;20222;-66
2023/12/25 09:28:47;;;;;;;1.30;1.00;;;14.40;99.90;;;;;;5041194;28;20309;-65
2023/12/25 09:31:14;;;;;;;1.80;1.20;;;14.30;99.90;;;;;;5025354;28;20214;-64
2023/12/25 09:33:41;;;;;;;5.17;2.80;;;14.30;99.90;;;;;;5030944;28;20226;-66
2023/12/25 09:36:09;;;;;;;3.63;2.10;;;14.20;99.90;;;;;;5031071;28;20293;-66
2023/12/25 09:38:36;;;;;;;2.17;0.90;;;14.20;99.90;;;;;;5031022;28;20290;-66
2023/12/25 09:41:06;;;;;;;5.00;4.03;;;14.30;99.90;;;;;;5030663;28;20687;-65
2023/12/25 09:43:33;;;;;;;1.53;1.00;;;14.40;99.90;;;;;;5030851;28;20210;-67
2023/12/25 09:46:00;;;;;;;1.47;0.73;;;14.50;99.90;;;;;;5031095;28;20213;-66
2023/12/25 09:48:27;;;;;;;1.03;0.80;;;14.60;99.90;;;;;;5030833;28;20297;-64
2023/12/25 09:50:54;;;;;;;1.00;0.90;;;14.50;99.90;;;;;;5030551;28;20720;-64
2023/12/25 09:53:22;;;;;;;1.53;0.77;;;14.60;99.90;;;;;;5031132;28;20230;-64
2023/12/25 09:55:50;;;;;;;5.03;1.00;;;14.80;99.90;;;;;;5030660;28;20210;-63
2023/12/25 09:58:17;;;;;;;1.20;0.80;;;14.80;99.90;;;;;;5031108;28;20209;-65
2023/12/25 10:00:44;;;;;;;1.00;0.70;;;14.90;99.90;;;;;;5030629;28;20218;-62
2023/12/25 10:03:11;;;;;;;1.00;0.70;;;15.00;99.90;;;;;;5030970;28;20206;-62
2023/12/25 10:05:38;;;;;;;1.93;0.70;;;15.10;99.90;;;;;;5030750;28;20458;-64
2023/12/25 10:08:05;;;;;;;1.00;0.80;;;15.10;99.90;;;;;;5030409;28;20222;-65
2023/12/25 10:10:33;;;;;;;1.03;0.77;;;15.10;99.90;;;;;;5030425;28;20218;-67
2023/12/25 10:13:00;;;;;;;0.83;0.60;;;15.20;99.90;;;;;;5022520;28;20711;-64
2023/12/25 10:15:27;;;;;;;2.30;0.80;;;15.10;99.90;;;;;;5038862;28;20668;-65
2023/12/25 10:18:03;;;;;;;2.33;0.87;;;15.10;99.90;;;;;;5042122;28;20233;-61
2023/12/25 10:20:29;;;;;;;2.77;0.80;;;15.00;99.90;;;;;;5042112;28;20284;-61
2023/12/25 10:22:56;;;;;;;1.20;1.00;;;15.00;99.90;;;;;;5039269;28;20213;-61
2023/12/25 10:25:27;;;;;;;1.30;1.03;;;15.10;99.90;;;;;;5038792;28;20556;-65
2023/12/25 10:27:55;;;;;;;3.30;1.00;;;15.10;99.90;;;;;;5041888;28;20225;-68
2023/12/25 10:30:23;;;;;;;1.23;0.70;;;15.10;99.90;;;;;;5043165;28;20209;-63
2023/12/25 10:33:07;;;;;;;1.30;0.77;;;15.00;99.90;;;;;;5044273;28;20217;-63
2023/12/25 10:35:34;;;;;;;1.10;0.60;;;15.10;99.90;;;;;;5043244;28;20295;-62
2023/12/25 10:38:03;;;;;;;0.68;0.60;;;15.10;99.90;;;;;;5046008;28;20706;-62
2023/12/25 10:40:31;;;;;;;1.00;0.60;;;15.10;99.90;;;;;;5046264;28;20271;-63
2023/12/25 10:43:00;;;;;;;1.47;0.60;;;15.10;99.90;;;;;;5041988;28;20597;-63
2023/12/25 10:45:30;;;;;;;1.17;0.50;;;15.20;99.90;;;;;;5043092;28;20209;-63
2023/12/25 10:47:58;;;;;;;0.80;0.50;;;15.20;99.90;;;;;;5042736;28;20253;-64
2023/12/25 10:50:27;;;;;;;2.10;0.57;;;15.10;99.90;;;;;;5049762;28;20683;-63
2023/12/25 10:52:54;;;;;;;1.45;0.68;;;15.10;99.90;;;;;;5034477;28;20207;-63
2023/12/25 10:55:26;;;;;;;1.00;0.40;;;15.10;99.90;;;;;;5034737;28;20210;-63
2023/12/25 10:57:53;;;;;;;0.80;0.70;;;15.10;99.90;;;;;;5034927;28;20226;-65
2023/12/25 11:00:22;;;;;;;2.53;1.90;;;15.10;99.90;;;;;;5034516;28;20229;-65
2023/12/25 11:02:53;;;;;;;1.40;1.00;;;15.10;99.90;;;;;;5034074;28;20403;-64
2023/12/25 11:05:20;;;;;;;1.10;0.63;;;15.10;99.90;;;;;;5034556;28;20211;-64
2023/12/25 11:07:48;;;;;;;1.07;0.63;;;15.20;99.90;;;;;;5034309;28;20241;-64
2023/12/25 11:10:15;;;;;;;0.50;0.50;;;15.10;99.90;;;;;;5033618;28;20232;-64
2023/12/25 11:12:42;;;;;;;1.50;0.60;;;15.10;99.90;;;;;;5034126;28;20210;-64
2023/12/25 11:15:08;;;;;;;0.85;0.50;;;15.10;99.90;;;;;;5034390;28;20234;-64
2023/12/25 11:17:37;;;;;;;1.03;0.47;;;15.10;99.90;;;;;;5033583;28;20234;-65
2023/12/25 11:20:04;;;;;;;1.13;0.73;;;15.10;99.90;;;;;;5033615;28;20237;-64
2023/12/25 11:22:36;;;;;;;2.35;1.60;;;15.00;99.90;;;;;;5033938;28;20207;-63
2023/12/25 11:25:04;;;;;;;0.30;0.30;;;15.00;99.90;;;;;;5033179;28;20217;-63
2023/12/25 11:27:31;;;;;;;0.87;0.30;;;15.00;99.90;;;;;;5034265;28;20600;-63
2023/12/25 11:30:01;;;;;;;0.90;0.70;;;15.10;99.90;;;;;;5034286;28;20210;-63
2023/12/25 11:32:30;;;;;;;1.43;0.60;;;15.10;99.90;;;;;;5033867;28;20206;-62
2023/12/25 11:34:58;;;;;;;9.83;4.67;;;15.20;99.90;;;;;;5033758;28;20598;-62
2023/12/25 11:37:25;;;;;;;2.83;1.53;;;15.30;99.90;;;;;;5033611;28;20712;-62
2023/12/25 11:39:59;;;;;;;0.53;0.33;;;15.30;99.90;;;;;;5033644;28;20210;-62
2023/12/25 11:42:26;;;;;;;0.80;0.50;;;15.30;99.90;;;;;;5033152;28;20242;-62
2023/12/25 11:44:56;;;;;;;0.33;0.33;;;15.30;99.90;;;;;;5033841;28;20238;-62
2023/12/25 11:47:29;;;;;;;2.08;1.38;;;15.10;99.90;;;;;;5033641;28;20253;-62
2023/12/25 11:49:57;;;;;;;1.43;0.83;;;15.10;99.90;;;;;;5033597;28;20688;-62
2023/12/25 11:52:53;;;;;;;3.20;0.90;;;15.00;99.90;;;;;;5033257;28;20709;-63
2023/12/25 11:55:20;;;;;;;0.63;0.40;;;15.10;99.90;;;;;;5033771;28;20315;-62
2023/12/25 11:57:47;;;;;;;0.67;0.23;;;15.10;99.90;;;;;;5033455;28;20712;-62
2023/12/25 12:00:18;;;;;;;1.63;0.40;;;15.10;99.90;;;;;;5033550;28;20213;-63
2023/12/25 12:02:45;;;;;;;0.50;0.50;;;15.10;99.90;;;;;;5033035;28;20202;-62
2023/12/25 12:05:14;;;;;;;0.50;0.43;;;15.10;99.90;;;;;;5033795;28;20216;-62
2023/12/25 12:07:41;;;;;;;0.80;0.70;;;15.10;99.90;;;;;;5033305;28;20233;-62
2023/12/25 12:10:09;;;;;;;1.67;0.90;;;15.00;99.90;;;;;;5033293;28;20233;-62
2023/12/25 12:12:36;;;;;;;1.27;0.70;;;14.80;99.90;;;;;;5032918;28;20210;-63
2023/12/25 12:15:04;;;;;;;0.43;0.33;;;14.80;99.90;;;;;;5032725;28;20229;-62
2023/12/25 12:17:31;;;;;;;0.40;0.30;;;14.70;99.90;;;;;;5032676;28;20655;-62
2023/12/25 12:19:59;;;;;;;0.80;0.50;;;14.80;99.90;;;;;;5033279;28;20214;-62
2023/12/25 12:22:27;;;;;;;0.77;0.43;;;14.80;99.90;;;;;;5032875;28;20705;-62
2023/12/25 12:24:54;;;;;;;0.77;0.60;;;14.80;99.90;;;;;;5032955;28;20199;-62
2023/12/25 12:27:21;;;;;;;1.87;1.10;;;14.80;99.90;;;;;;5032704;28;20233;-64
2023/12/25 12:29:49;;;;;;;0.40;0.37;;;14.90;99.90;;;;;;5032813;28;20206;-63
2023/12/25 12:32:16;;;;;;;1.17;0.57;;;14.80;99.90;;;;;;5033297;28;20206;-63
2023/12/25 12:34:43;;;;;;;1.87;1.27;;;14.90;99.90;;;;;;5033290;28;20321;-63
2023/12/25 12:37:10;;;;;;;0.53;0.40;;;14.90;99.90;;;;;;5033042;28;20277;-63
2023/12/25 12:39:39;;;;;;;0.57;0.30;;;14.90;99.90;;;;;;5033132;28;20264;-63
2023/12/25 12:42:11;;;;;;;0.43;0.27;;;14.80;99.90;;;;;;5032421;28;20214;-68
2023/12/25 12:44:38;;;;;;;0.40;0.30;;;14.80;99.90;;;;;;5032859;28;20202;-66
2023/12/25 12:47:07;;;;;;;1.00;0.80;;;14.70;99.90;;;;;;5032615;28;20226;-67
2023/12/25 12:49:34;;;;;;;0.23;0.20;;;14.70;99.90;;;;;;5032511;28;20305;-65